Time;durP1;ratioP1;P1;durP2;ratioP2;P2;SDS_P1;SDS_P2;PMS_P1;PMS_P2;Temp;Humidity;BMP_temperature;BMP_pressure;BME280_temperature;BME280_humidity;BME280_pressure;Samples;Min_cycle;Max_cycle;Signal;HPM_P1;HPM_P2
2021/10/22 18:04:51;;;;;;;0.20;0.20;;;;;;;;;;5089532;27;20593;-72
2021/10/22 18:07:18;;;;;;;0.20;0.20;;;;;;;;;;5076782;28;20205;-73
2021/10/22 18:09:44;;;;;;;0.20;0.20;;;;;;;;;;5074850;28;20208;-74
2021/10/22 18:12:11;;;;;;;0.20;0.20;;;;;;;;;;5077601;28;20199;-72
2021/10/22 18:14:37;;;;;;;0.20;0.20;;;;;;;;;;5075471;28;20246;-74
2021/10/22 18:17:04;;;;;;;0.10;0.10;;;;;;;;;;5077794;28;20384;-71
2021/10/22 18:19:30;;;;;;;0.17;0.17;;;;;;;;;;5078297;28;20201;-73
2021/10/22 18:21:58;;;;;;;0.20;0.20;;;;;;;;;;5078074;28;20225;-74
2021/10/22 18:24:24;;;;;;;0.20;0.20;;;;;;;;;;5075268;28;20258;-72
2021/10/22 18:26:50;;;;;;;0.10;0.10;;;;;;;;;;5075073;28;20219;-72
2021/10/22 18:29:19;;;;;;;0.53;0.53;;;;;;;;;;5074821;28;20210;-73
2021/10/22 18:31:46;;;;;;;0.33;0.20;;;;;;;;;;5073503;28;20226;-71
2021/10/22 18:34:13;;;;;;;0.10;0.10;;;;;;;;;;5075946;28;20384;-72
2021/10/22 18:36:39;;;;;;;0.10;0.10;;;;;;;;;;5074032;28;20376;-74
2021/10/22 18:39:07;;;;;;;0.17;0.17;;;;;;;;;;5075461;28;20204;-73
2021/10/22 18:41:33;;;;;;;0.10;0.10;;;;;;;;;;5079411;28;20214;-71
2021/10/22 18:44:01;;;;;;;0.10;0.10;;;;;;;;;;5074403;28;20545;-73
2021/10/22 18:46:32;;;;;;;0.63;0.63;;;;;;;;;;5073788;28;20440;-73
2021/10/22 18:49:05;;;;;;;0.13;0.13;;;;;;;;;;5073361;28;20464;-74
2021/10/22 18:51:31;;;;;;;0.10;0.10;;;;;;;;;;5073918;28;20199;-74
2021/10/22 18:53:58;;;;;;;0.20;0.20;;;;;;;;;;5073532;28;20289;-73
2021/10/22 18:56:26;;;;;;;0.10;0.10;;;;;;;;;;5074736;28;20202;-71
2021/10/22 18:58:52;;;;;;;0.10;0.10;;;;;;;;;;5075146;28;20203;-74
2021/10/22 19:01:20;;;;;;;0.10;0.10;;;;;;;;;;5073612;28;20207;-72
2021/10/22 19:03:48;;;;;;;0.10;0.10;;;;;;;;;;5072151;28;20231;-73
2021/10/22 19:06:27;;;;;;;0.10;0.10;;;;;;;;;;5079180;28;20300;-73
2021/10/22 19:08:54;;;;;;;0.10;0.10;;;;;;;;;;5074983;28;20494;-73
2021/10/22 19:11:21;;;;;;;0.10;0.10;;;;;;;;;;5074477;28;20249;-73
2021/10/22 19:13:54;;;;;;;0.47;0.47;;;;;;;;;;5073818;28;20245;-74
2021/10/22 19:16:20;;;;;;;0.30;0.30;;;;;;;;;;5060397;28;20417;-74
2021/10/22 19:18:46;;;;;;;0.13;0.13;;;;;;;;;;5061527;28;20210;-73
2021/10/22 19:21:13;;;;;;;0.10;0.10;;;;;;;;;;5061861;28;20261;-75
2021/10/22 19:23:39;;;;;;;0.10;0.10;;;;;;;;;;5060618;28;20239;-73
2021/10/22 19:26:06;;;;;;;0.10;0.10;;;;;;;;;;5058805;28;20257;-74
2021/10/22 19:28:32;;;;;;;0.10;0.10;;;;;;;;;;5060786;28;20215;-73
2021/10/22 19:31:00;;;;;;;0.10;0.10;;;;;;;;;;5061652;28;20224;-73
2021/10/22 19:33:26;;;;;;;0.10;0.10;;;;;;;;;;5061280;28;20205;-72
2021/10/22 19:35:53;;;;;;;0.10;0.10;;;;;;;;;;5060434;28;20242;-72
2021/10/22 19:38:19;;;;;;;0.10;0.10;;;;;;;;;;5060307;28;20203;-72
2021/10/22 19:40:46;;;;;;;0.10;0.10;;;;;;;;;;5061652;28;20211;-73
2021/10/22 19:43:12;;;;;;;0.10;0.10;;;;;;;;;;5060912;28;20220;-69
2021/10/22 19:45:38;;;;;;;0.10;0.10;;;;;;;;;;5060066;28;20207;-74
2021/10/22 19:48:06;;;;;;;0.10;0.10;;;;;;;;;;5061008;28;20315;-72
2021/10/22 19:50:33;;;;;;;0.10;0.10;;;;;;;;;;5058245;28;20216;-68
2021/10/22 19:52:59;;;;;;;0.17;0.17;;;;;;;;;;5061388;28;20207;-72
2021/10/22 19:55:25;;;;;;;0.10;0.10;;;;;;;;;;5060515;28;20206;-73
2021/10/22 19:57:52;;;;;;;0.10;0.10;;;;;;;;;;5061233;28;20222;-73
2021/10/22 20:00:18;;;;;;;0.10;0.10;;;;;;;;;;5060101;28;20283;-72
2021/10/22 20:02:44;;;;;;;0.10;0.10;;;;;;;;;;5061073;28;20223;-73
2021/10/22 20:05:13;;;;;;;0.10;0.10;;;;;;;;;;5059083;28;20216;-70
2021/10/22 20:07:39;;;;;;;0.10;0.10;;;;;;;;;;5059044;28;20498;-72
2021/10/22 20:10:06;;;;;;;0.10;0.10;;;;;;;;;;5060651;28;20226;-73
2021/10/22 20:12:32;;;;;;;0.10;0.10;;;;;;;;;;5059288;28;20433;-75
2021/10/22 20:14:59;;;;;;;0.10;0.10;;;;;;;;;;5060186;28;20222;-73
2021/10/22 20:17:25;;;;;;;0.10;0.10;;;;;;;;;;5060931;28;20239;-74
2021/10/22 20:19:52;;;;;;;0.10;0.10;;;;;;;;;;5059323;28;20533;-71
2021/10/22 20:22:21;;;;;;;0.10;0.10;;;;;;;;;;5061643;28;20206;-70
2021/10/22 20:24:47;;;;;;;0.10;0.10;;;;;;;;;;5064188;28;20230;-73
2021/10/22 20:27:14;;;;;;;0.10;0.10;;;;;;;;;;5062751;28;20277;-73
2021/10/22 20:29:44;;;;;;;0.10;0.10;;;;;;;;;;5063586;28;20201;-71
2021/10/22 20:32:11;;;;;;;0.10;0.10;;;;;;;;;;5064420;28;20435;-72
2021/10/22 20:34:38;;;;;;;0.10;0.10;;;;;;;;;;5063390;28;20200;-73
2021/10/22 20:37:04;;;;;;;0.10;0.10;;;;;;;;;;5063820;28;20251;-71
2021/10/22 20:39:32;;;;;;;0.10;0.10;;;;;;;;;;5063218;28;20231;-71
2021/10/22 20:41:58;;;;;;;0.13;0.13;;;;;;;;;;5063460;28;20211;-71
2021/10/22 20:44:24;;;;;;;0.10;0.10;;;;;;;;;;5063501;28;20413;-71
2021/10/22 20:46:51;;;;;;;0.10;0.10;;;;;;;;;;5063141;28;20211;-70
2021/10/22 20:49:35;;;;;;;0.10;0.10;;;;;;;;;;5063028;28;20229;-72
2021/10/22 20:57:31;;;;;;;0.13;0.13;;;;;;;;;;5062480;28;20234;-72
2021/10/22 21:00:00;;;;;;;0.20;0.20;;;;;;;;;;5062816;28;20207;-72
2021/10/22 21:02:27;;;;;;;0.10;0.10;;;;;;;;;;5063136;28;20215;-71
2021/10/22 21:04:54;;;;;;;0.10;0.10;;;;;;;;;;5062961;28;20215;-70
2021/10/22 21:07:20;;;;;;;0.17;0.17;;;;;;;;;;5062685;28;20211;-71
2021/10/22 21:09:48;;;;;;;0.20;0.20;;;;;;;;;;5062936;28;20211;-71
2021/10/22 21:12:14;;;;;;;0.10;0.10;;;;;;;;;;5064280;28;20232;-72
2021/10/22 21:14:40;;;;;;;0.10;0.10;;;;;;;;;;5062808;28;20200;-72
2021/10/22 21:17:07;;;;;;;0.17;0.17;;;;;;;;;;5062460;28;20447;-72
2021/10/22 21:19:34;;;;;;;0.10;0.10;;;;;;;;;;5062734;28;20213;-73
2021/10/22 21:22:00;;;;;;;0.17;0.17;;;;;;;;;;5064535;28;20395;-71
2021/10/22 21:24:27;;;;;;;0.13;0.13;;;;;;;;;;5065667;28;20367;-72
2021/10/22 21:26:54;;;;;;;0.10;0.10;;;;;;;;;;5066436;28;20237;-73
2021/10/22 21:29:21;;;;;;;0.20;0.20;;;;;;;;;;5062294;28;20208;-70
2021/10/22 21:31:47;;;;;;;0.20;0.20;;;;;;;;;;5062606;28;20238;-72
2021/10/22 21:34:14;;;;;;;0.10;0.10;;;;;;;;;;5062886;28;20254;-71
2021/10/22 21:36:40;;;;;;;0.20;0.20;;;;;;;;;;5062722;28;20362;-72
2021/10/22 21:39:07;;;;;;;0.10;0.10;;;;;;;;;;5064858;28;20248;-72
2021/10/22 21:41:34;;;;;;;0.20;0.20;;;;;;;;;;5062764;28;20356;-72
2021/10/22 21:44:02;;;;;;;0.10;0.10;;;;;;;;;;5062618;28;20235;-72
2021/10/22 21:46:28;;;;;;;0.10;0.10;;;;;;;;;;5061012;28;20207;-73
2021/10/22 21:48:54;;;;;;;0.13;0.13;;;;;;;;;;5062466;28;20211;-72
2021/10/22 21:51:21;;;;;;;0.10;0.10;;;;;;;;;;5065597;28;20211;-73
2021/10/22 21:53:47;;;;;;;0.20;0.20;;;;;;;;;;5062791;28;20250;-73
2021/10/22 21:56:13;;;;;;;0.20;0.20;;;;;;;;;;5062282;28;20203;-72
2021/10/22 21:58:39;;;;;;;0.10;0.10;;;;;;;;;;5065458;28;20430;-71
2021/10/22 22:01:07;;;;;;;0.10;0.10;;;;;;;;;;5062033;28;20203;-73
2021/10/22 22:03:33;;;;;;;0.10;0.10;;;;;;;;;;5062976;28;20253;-71
2021/10/22 22:06:01;;;;;;;0.13;0.13;;;;;;;;;;5064236;28;20207;-73
2021/10/22 22:08:28;;;;;;;0.10;0.10;;;;;;;;;;5069017;28;20198;-73
2021/10/22 22:10:54;;;;;;;0.10;0.10;;;;;;;;;;5062571;28;20207;-73
2021/10/22 22:13:21;;;;;;;0.20;0.20;;;;;;;;;;5065300;28;20396;-72
2021/10/22 22:15:47;;;;;;;0.10;0.10;;;;;;;;;;5064843;28;20203;-74
2021/10/22 22:18:14;;;;;;;0.10;0.10;;;;;;;;;;5062100;28;20214;-70
2021/10/22 22:20:41;;;;;;;0.10;0.10;;;;;;;;;;5062221;28;20215;-73
2021/10/22 22:23:07;;;;;;;0.10;0.10;;;;;;;;;;5062658;28;20206;-73
2021/10/22 22:25:33;;;;;;;1.23;1.23;;;;;;;;;;5062236;28;20265;-72
2021/10/22 22:28:00;;;;;;;0.10;0.10;;;;;;;;;;5062699;28;20204;-73
2021/10/22 22:30:27;;;;;;;0.10;0.10;;;;;;;;;;5062402;28;20254;-72
2021/10/22 22:32:53;;;;;;;0.20;0.20;;;;;;;;;;5062311;28;20229;-73
2021/10/22 22:35:21;;;;;;;0.10;0.10;;;;;;;;;;5062214;28;20203;-72
2021/10/22 22:37:50;;;;;;;0.10;0.10;;;;;;;;;;5062571;28;20257;-73
2021/10/22 22:40:17;;;;;;;0.10;0.10;;;;;;;;;;5062509;28;20239;-73
2021/10/22 22:42:43;;;;;;;0.10;0.10;;;;;;;;;;5062407;28;20214;-73
2021/10/22 22:45:10;;;;;;;0.10;0.10;;;;;;;;;;5062019;28;20228;-71
2021/10/22 22:47:37;;;;;;;0.10;0.10;;;;;;;;;;5062184;28;20211;-71
2021/10/22 22:50:03;;;;;;;0.10;0.10;;;;;;;;;;5063584;28;20228;-72
2021/10/22 22:52:31;;;;;;;0.10;0.10;;;;;;;;;;5065786;28;20204;-70
2021/10/22 22:54:57;;;;;;;0.17;0.17;;;;;;;;;;5060180;28;20272;-69
2021/10/22 22:57:24;;;;;;;0.10;0.10;;;;;;;;;;5062556;28;20421;-70
2021/10/22 22:59:50;;;;;;;0.20;0.20;;;;;;;;;;5061735;28;20245;-72
2021/10/22 23:02:16;;;;;;;0.20;0.20;;;;;;;;;;5064032;28;20203;-71
2021/10/22 23:04:42;;;;;;;0.10;0.10;;;;;;;;;;5061712;28;20456;-71
2021/10/22 23:07:09;;;;;;;0.10;0.10;;;;;;;;;;5061734;28;20206;-71
2021/10/22 23:09:36;;;;;;;0.13;0.13;;;;;;;;;;5061663;28;21148;-70
2021/10/22 23:12:04;;;;;;;0.20;0.20;;;;;;;;;;5061684;28;20215;-73
2021/10/22 23:14:31;;;;;;;0.20;0.20;;;;;;;;;;5062575;28;20211;-72
2021/10/22 23:16:57;;;;;;;0.10;0.10;;;;;;;;;;5060925;28;20210;-72
2021/10/22 23:19:23;;;;;;;0.17;0.17;;;;;;;;;;5061193;28;20208;-72
2021/10/22 23:21:49;;;;;;;0.10;0.10;;;;;;;;;;5061180;28;20222;-70
2021/10/22 23:24:16;;;;;;;0.10;0.10;;;;;;;;;;5064113;28;20517;-72
2021/10/22 23:26:43;;;;;;;0.13;0.13;;;;;;;;;;5063585;28;20207;-71
2021/10/22 23:29:10;;;;;;;0.13;0.13;;;;;;;;;;5063160;28;20249;-72
2021/10/22 23:31:36;;;;;;;0.10;0.10;;;;;;;;;;5061457;28;20408;-71
2021/10/22 23:34:03;;;;;;;0.10;0.10;;;;;;;;;;5063317;28;20253;-72
2021/10/22 23:36:29;;;;;;;0.67;0.67;;;;;;;;;;5061768;28;20235;-72
2021/10/22 23:38:55;;;;;;;0.57;0.57;;;;;;;;;;5062230;28;20215;-71
2021/10/22 23:41:21;;;;;;;0.10;0.10;;;;;;;;;;5060934;28;20207;-72
2021/10/22 23:43:49;;;;;;;0.10;0.10;;;;;;;;;;5064057;28;20214;-72
2021/10/22 23:46:15;;;;;;;0.10;0.10;;;;;;;;;;5060360;28;20245;-72
2021/10/22 23:48:41;;;;;;;0.10;0.10;;;;;;;;;;5058462;28;20204;-71
2021/10/22 23:51:08;;;;;;;0.10;0.10;;;;;;;;;;5061591;28;20203;-71
2021/10/22 23:53:34;;;;;;;0.10;0.10;;;;;;;;;;5061564;28;20214;-68
2021/10/22 23:56:00;;;;;;;0.10;0.10;;;;;;;;;;5061552;28;20206;-73
2021/10/22 23:58:26;;;;;;;0.30;0.30;;;;;;;;;;5060861;28;20470;-71
